x

9099064 - Duluth, Mn (dulm5) Weather Station

5:54am - Tue 31st May 2016 All times are CDT. -5 hours from GMT.

  • Wind
    17mph, 28mph gusts
  • Air Temp 47°f
  • Sea Pressure 1014.8mb
  • 9099064 - Duluth, Mn
  • 9099064 - Duluth, Mn

More Historic Weather Station data

Upgrade to MSW Pro to gain access to the past 30 days of data for over 8000 Wavebouys and Weather Stations around the globe.

Join Pro

Comparision Forecast

View Surf forecast
   
Tue 05/31 5:54am 17 28 mph 1014.8mb 47f
5:48am 21 32 mph 1015mb 47f
5:42am 20 31 mph 1015mb 47f
5:36am 22 31 mph 1015mb 47f
5:30am 20 31 mph 1015.1mb 47f
5:24am 18 29 mph 1015.2mb 47f
5:18am 21 29 mph 1015.4mb 47f
5:12am 17 26 mph 1015.2mb 47f
5:06am 17 24 mph 1015.4mb 48f
5:00am 20 30 mph 1015.3mb 48f
4:54am 21 28 mph 1015.4mb 48f
4:48am 17 25 mph 1015.4mb 48f
4:42am 17 28 mph 1015.4mb 48f
4:36am 16 28 mph 1015.3mb 48f
4:30am 17 31 mph 1015.3mb 48f
4:24am 18 30 mph 1015.3mb 48f
4:18am 18 26 mph 1015.3mb -
4:12am 16 30 mph 1015.4mb -
4:06am 20 29 mph 1015.5mb -
4:00am 18 29 mph 1015.6mb 48f
3:54am 22 31 mph 1015.6mb 48f
3:48am 23 32 mph 1015.6mb 49f
3:42am 18 31 mph 1015.6mb 49f
3:36am 20 36 mph 1015.3mb 48f
3:30am 23 31 mph 1015.3mb 48f
3:24am 24 33 mph 1015.3mb 48f
3:18am 22 30 mph 1015.3mb 48f
3:12am 21 31 mph 1015.3mb 48f
3:06am 21 32 mph 1015.2mb 48f
3:00am 22 31 mph 1015.1mb 48f
2:54am 20 30 mph 1015.1mb 48f
2:48am 20 29 mph 1015.2mb 48f
2:42am 16 34 mph 1015.3mb 48f
2:36am 16 25 mph 1015.3mb 49f
2:30am 14 26 mph 1015.4mb 49f
2:24am 15 28 mph 1015.5mb 49f
2:18am 16 29 mph 1015.6mb 49f
2:12am 16 24 mph 1015.6mb 49f
2:06am 14 28 mph 1015.6mb 49f
2:00am 15 29 mph 1015.6mb 49f
1:54am 16 28 mph 1015.5mb 49f
1:48am 17 25 mph 1015.5mb 49f
1:42am 17 26 mph 1015.6mb 50f
1:36am 15 30 mph 1015.4mb 51f
1:30am 21 31 mph 1015.3mb 51f
1:24am 16 30 mph 1015.1mb 51f
1:18am 17 28 mph 1015mb 52f
1:12am 15 30 mph 1014.9mb 52f
1:06am 17 28 mph 1015mb 52f
1:00am 17 30 mph 1014.9mb 53f
12:54am 20 30 mph 1015mb 53f
12:48am 21 30 mph 1014.9mb 53f
12:42am 21 31 mph 1014.8mb 53f
12:36am 23 36 mph 1014.8mb 53f
12:30am 24 33 mph 1014.7mb 53f
12:24am 22 30 mph 1014.8mb 53f
12:18am 23 33 mph 1014.6mb 54f
12:12am 23 31 mph 1014.5mb 54f
12:06am 23 32 mph 1014.5mb 55f
12:00am 18 30 mph 1014.3mb 56f
Mon 05/30 11:54pm 17 24 mph 1014.2mb 56f
11:48pm 15 24 mph 1014.1mb 55f
11:42pm 15 24 mph 1014.1mb 55f
11:36pm 18 30 mph 1014.1mb 55f
11:30pm 20 28 mph 1014.1mb 58f
11:24pm 5 11 mph 1013.9mb 61f
11:18pm 7 13 mph 1013.7mb 62f
11:12pm 10 15 mph 1013.5mb 64f
11:06pm 5 9 mph 1013.3mb 64f
11:00pm 3 11 mph 1013.5mb 64f
10:54pm 6 8 mph 1013.4mb 63f
10:48pm 5 11 mph 1013.2mb 62f
10:42pm 6 9 mph 1013mb 61f
10:36pm 5 8 mph 1013.2mb 58f
10:30pm 8 10 mph 1013.2mb 57f
10:24pm 7 13 mph 1013.1mb 57f
10:18pm  -  mph - 58f
10:12pm  -  mph - 57f
10:06pm  -  mph - 57f
9:30pm 3 6 mph 1013.2mb -
9:24pm 3 6 mph 1013.1mb -
9:18pm  -  mph 1013.1mb -
9:12pm  -  mph 1013.1mb -
9:06pm  -  mph 1013.1mb -
9:00pm  -  mph 1012.9mb -
8:54pm  -  mph 1012.7mb -
8:48pm 3 6 mph 1012.7mb 62f
8:42pm 5 6 mph 1012.5mb 62f
8:36pm 2 5 mph 1012.5mb 62f
8:30pm 3 6 mph 1012.7mb -
8:24pm 2 5 mph 1012.6mb -
8:18pm  -  mph 1012.3mb 63f
8:12pm  -  mph 1012.3mb 63f
8:06pm  -  mph 1012.2mb 62f
8:00pm  -  mph 1012.1mb -
7:54pm  -  mph 1012mb -
7:18pm  -  mph 1011.6mb -
7:12pm  -  mph 1011.7mb -
7:06pm  -  mph 1011.7mb -
7:00pm  -  mph - 67f
6:54pm  -  mph - 66f
6:30pm  -  mph 1012mb -
6:24pm  -  mph 1012mb -
6:18pm  -  mph - 60f
6:12pm  -  mph - 60f
6:06pm  -  mph - 62f
6:00pm  -  mph - 64f
5:54pm  -  mph - 63f
5:30pm 2 3 mph - -
5:24pm 2 6 mph - -
5:18pm  -  mph 1012mb 67f
5:12pm  -  mph 1011.9mb 69f
5:06pm  -  mph 1011.9mb 69f
5:00pm  -  mph - 72f
4:54pm  -  mph - 73f
4:30pm 5 7 mph 1011.9mb 71f
4:24pm 5 7 mph 1012mb 73f
4:18pm 3 6 mph 1012mb 73f
4:12pm 2 5 mph 1012.1mb 72f
4:06pm 3 6 mph 1012.1mb 73f
4:00pm 3 6 mph 1012.1mb 73f
3:54pm 3 6 mph 1012.1mb 73f
3:48pm 5 7 mph 1012.2mb 73f
3:42pm 5 6 mph 1012.3mb 74f
3:36pm 2 3 mph 1012.3mb 74f
3:30pm 2 3 mph 1012.4mb 72f
3:24pm 2 7 mph 1012.5mb 72f
3:18pm 5 7 mph 1012.4mb 71f
3:12pm 2 6 mph 1012.6mb 69f
3:06pm 2 3 mph 1012.5mb 69f
3:00pm 2 6 mph 1012.5mb 68f
2:54pm 5 7 mph 1012.4mb 68f
2:48pm 5 7 mph 1012.4mb 68f
2:42pm 5 9 mph 1012.4mb 70f
2:36pm 8 9 mph 1012.4mb 71f
2:30pm 7 9 mph 1012.4mb 69f
2:24pm 5 7 mph 1012.5mb 73f
2:18pm 3 6 mph 1012.6mb 73f
2:12pm 3 8 mph 1012.6mb 73f
2:06pm 1 6 mph 1012.6mb 78f
2:00pm 3 11 mph 1012.5mb 81f
1:54pm 3 14 mph 1012.5mb 80f
1:48pm 6 9 mph 1012.5mb 80f
1:42pm 8 13 mph 1012.6mb 80f
1:36pm 9 13 mph 1012.6mb 79f
1:30pm 3 7 mph 1012.7mb 80f
1:24pm 3 9 mph 1012.7mb 80f
1:18pm 8 17 mph 1012.8mb 78f
1:12pm 14 16 mph 1012.8mb 78f
1:06pm 5 7 mph 1012.8mb 80f
1:00pm 5 7 mph 1012.8mb 80f
12:54pm 9 14 mph 1012.8mb 78f
12:48pm 9 13 mph 1012.9mb 78f
12:42pm 3 14 mph 1012.9mb 78f
12:36pm 9 16 mph 1012.8mb 78f
12:30pm 8 11 mph 1012.9mb 77f
12:24pm 6 11 mph 1013mb 78f
12:18pm 10 15 mph 1013mb 77f
12:12pm 8 16 mph 1013mb 77f
12:06pm 11 16 mph 1013.1mb 76f
12:00pm 7 14 mph 1013.1mb 77f
11:54am 9 15 mph 1013mb 77f
11:48am 8 23 mph 1013.1mb 76f
11:42am 11 15 mph 1013.3mb 75f
11:36am 7 14 mph 1013.3mb 76f
11:30am 6 17 mph 1013.3mb 75f
11:24am 8 15 mph 1013.2mb 75f
11:18am 13 16 mph 1013.2mb 75f
11:12am 14 17 mph 1013.2mb 75f
11:06am 11 17 mph 1013.2mb 75f
11:00am 13 16 mph 1013.2mb 74f
10:54am 14 18 mph 1013.3mb 74f
10:48am 13 16 mph 1013.3mb 74f
10:42am 8 14 mph 1013.3mb 74f
10:36am 11 16 mph 1013.3mb 74f
10:30am 13 16 mph 1013.4mb 73f
10:24am 10 17 mph 1013.4mb 73f
10:18am 13 17 mph 1013.5mb 72f
10:12am 13 18 mph 1013.4mb 73f
10:06am 10 17 mph 1013.4mb 72f
10:00am 13 15 mph 1013.3mb 72f
9:54am 14 16 mph 1013.4mb 71f
9:48am 10 14 mph 1013.4mb 72f
9:42am 9 15 mph 1013.4mb 71f
9:36am 9 16 mph 1013.5mb 71f
9:30am 15 18 mph 1013.5mb 71f
9:24am 14 20 mph 1013.6mb 71f
9:18am 14 18 mph 1013.6mb 70f
9:12am 11 17 mph 1013.5mb 70f
9:06am 11 20 mph 1013.5mb 70f
9:00am 14 20 mph 1013.5mb 70f
8:54am 11 18 mph 1013.5mb 69f
8:48am 14 16 mph 1013.4mb 69f
8:42am 15 18 mph 1013.5mb 68f
8:36am 16 18 mph 1013.5mb 68f
8:30am 14 20 mph 1013.6mb 68f
8:24am 14 18 mph 1013.7mb 67f
8:18am 14 18 mph 1013.6mb 67f
8:12am 14 17 mph 1013.7mb 66f
8:06am 15 20 mph 1013.7mb 66f
8:00am 17 22 mph 1013.6mb 66f
7:54am 18 22 mph 1013.7mb 66f
7:48am 16 18 mph 1013.7mb 65f
7:42am 15 17 mph 1013.7mb 65f
7:36am 14 17 mph 1013.7mb 64f
7:30am 14 20 mph 1013.6mb 64f
7:24am 15 18 mph 1013.7mb 63f
7:18am 14 16 mph 1013.8mb 63f
7:12am 8 14 mph 1013.8mb 61f
7:06am 7 11 mph 1013.8mb 61f
7:00am 7 9 mph 1013.7mb 61f
6:54am 7 9 mph 1013.7mb 60f
6:48am 7 10 mph 1013.7mb 60f
6:42am 8 10 mph 1013.9mb 60f
6:36am 8 10 mph 1013.8mb 60f
6:30am 8 13 mph 1013.7mb 60f
6:24am 10 13 mph 1013.8mb 61f
6:18am 8 9 mph 1013.8mb 61f
6:12am 8 11 mph 1013.8mb 62f
6:06am 8 13 mph 1013.7mb 63f
6:00am 9 13 mph 1013.7mb 63f
5:54am 10 14 mph 1013.5mb 62f
5:48am 9 14 mph 1013.5mb 62f
5:42am 9 11 mph 1013.4mb 62f
5:36am 8 11 mph 1013.4mb 62f
5:30am 8 10 mph 1013.4mb 61f
5:24am 8 11 mph 1013.3mb 60f
5:18am 6 8 mph 1013.3mb 60f
5:12am 7 11 mph 1013.2mb 61f
5:06am 9 13 mph 1013mb 62f
5:00am 11 15 mph 1012.9mb 62f
4:54am 14 16 mph 1012.9mb 62f
4:48am 14 17 mph 1012.8mb 62f
4:42am 14 17 mph 1012.8mb 62f
4:36am 14 18 mph 1012.8mb 62f
4:30am 15 17 mph 1012.8mb 61f
4:24am 15 17 mph 1012.7mb 61f
4:18am 14 17 mph 1012.6mb 61f
4:12am 15 16 mph 1012.7mb 61f
4:06am 14 17 mph 1012.7mb 61f
4:00am 14 17 mph 1012.6mb 61f
3:54am 14 18 mph 1012.6mb 61f
3:48am 14 17 mph 1012.6mb 61f
3:42am 14 17 mph 1012.6mb 61f
3:36am 15 17 mph 1012.6mb 61f
3:30am 16 17 mph 1012.6mb 61f
3:24am 15 17 mph 1012.6mb 61f
3:18am 16 18 mph 1012.7mb 61f
3:12am 14 16 mph 1012.6mb 61f
3:06am 14 17 mph 1012.7mb 61f
3:00am 14 17 mph 1012.7mb 61f
2:54am 13 16 mph 1012.8mb 61f
2:48am 14 16 mph 1012.9mb 60f
2:42am 14 15 mph 1012.9mb 60f
2:36am 14 16 mph 1012.8mb 61f
2:30am 14 16 mph 1012.8mb 61f
2:24am 15 16 mph 1012.8mb 61f
2:18am 14 16 mph 1012.7mb 60f
2:12am 13 16 mph 1012.6mb 60f
2:06am 14 15 mph 1012.6mb 60f
2:00am 14 16 mph 1012.7mb 60f
1:54am 14 16 mph 1012.7mb 60f
1:48am 13 15 mph 1012.5mb 60f
1:42am 13 15 mph 1012.5mb 61f
1:36am 13 15 mph 1012.6mb 61f
1:30am 13 15 mph 1012.6mb 61f
1:24am 11 14 mph 1012.6mb 61f
1:18am 11 15 mph 1012.5mb 61f
1:12am 13 15 mph 1012.5mb 61f
1:06am 13 14 mph 1012.5mb 61f
1:00am 13 14 mph 1012.5mb 61f
12:54am 13 14 mph 1012.4mb 61f
12:48am  -  mph 1012.4mb 61f
12:42am  -  mph 1012.4mb 61f
12:36am  -  mph 1012.4mb 61f
12:30am 11 14 mph 1012.3mb 61f
12:24am 11 13 mph 1012.3mb 61f
12:18am 11 14 mph 1012.3mb 61f
12:12am 11 13 mph 1012.3mb 62f
12:06am 11 14 mph 1012.3mb 62f
12:00am 13 15 mph 1012.2mb 62f
Sun 05/29 11:54pm 11 14 mph 1012.2mb 63f
11:48pm 7 9 mph 1012.3mb 61f
11:42pm 6 7 mph 1012.3mb 60f
11:36pm 7 8 mph 1012.3mb 60f
11:30pm 7 8 mph 1012.3mb 60f
11:24pm 6 7 mph 1012.2mb 60f
11:18pm 6 8 mph 1012.1mb 61f
11:12pm 6 8 mph 1012.1mb 61f
11:06pm 7 9 mph 1012.1mb 62f
11:00pm 8 9 mph 1012.1mb 63f
10:54pm 8 10 mph 1012.1mb 63f
10:48pm  -  mph 1012mb 63f
10:42pm  -  mph 1012mb 63f
10:36pm  -  mph 1012mb 64f
10:30pm 7 8 mph 1012mb 63f
10:24pm 6 7 mph 1012mb 64f
10:18pm  -  mph 1012mb 64f
10:12pm  -  mph 1012mb 64f
10:06pm  -  mph 1012mb 64f
10:00pm  -  mph - 65f
9:54pm  -  mph - 64f
9:48pm 5 6 mph 1011.8mb -
9:42pm 6
mph
1011.8mb -
9:36pm 6 7 mph 1011.8mb -
9:30pm  -  mph 1011.7mb -
9:24pm  -  mph 1011.7mb -
9:00pm  -  mph - 66f
8:54pm  -  mph - 67f
8:48pm 5 6 mph 1011.3mb 67f
8:42pm 5 6 mph 1011.3mb 67f
8:36pm 6 7 mph 1011.3mb 67f
8:30pm  -  mph 1011.3mb -
8:24pm  -  mph 1011.3mb -
8:18pm  -  mph - 69f
8:12pm  -  mph - 70f
8:06pm  -  mph - 69f
8:00pm  -  mph 1011.1mb -
7:54pm  -  mph 1011.1mb -
7:48pm  -  mph 1011.1mb -
7:42pm  -  mph 1011mb -
7:36pm  -  mph 1010.9mb -
7:30pm  -  mph 1010.9mb -
7:24pm  -  mph 1010.9mb -
7:18pm  -  mph - 71f
7:12pm  -  mph - 71f
7:06pm  -  mph - 71f
7:00pm  -  mph 1010.7mb 71f
6:54pm  -  mph 1010.7mb 71f
6:48pm  -  mph 1010.7mb -
6:42pm  -  mph 1010.7mb -
6:36pm  -  mph 1010.8mb -
6:30pm 18 33 mph - -
6:24pm 11 21 mph - -
6:18pm  -  mph - 71f
6:12pm  -  mph - 71f
6:06pm  -  mph - 71f
6:00pm  -  mph 1010.8mb -
5:54pm  -  mph 1010.8mb -
5:30pm 15 24 mph 1010.5mb -
5:24pm 18 24 mph 1010.6mb -
5:18pm 16 21 mph 1010.7mb 71f
5:12pm 17 28 mph 1010.7mb 71f
5:06pm 16 23 mph 1010.8mb 71f
4:30pm 15 24 mph 1010.8mb 70f
4:24pm 17 29 mph 1010.8mb 69f
4:18pm 15 22 mph 1010.8mb 69f
4:12pm 16 21 mph 1010.8mb 69f
4:06pm 15 18 mph 1010.8mb 69f
4:00pm 14 23 mph 1010.7mb 69f
3:54pm 18 25 mph 1010.6mb 69f
3:48pm 15 21 mph 1010.6mb 69f
3:42pm 16 22 mph 1010.7mb 69f
3:36pm 16 20 mph 1010.7mb 68f
3:30pm 15 22 mph 1010.6mb 69f
3:24pm 16 26 mph 1010.5mb 69f
3:18pm 21 28 mph 1010.5mb 69f
3:12pm 15 22 mph 1010.5mb 69f
3:06pm 11 23 mph 1010.5mb 68f
3:00pm 18 25 mph 1010.4mb 68f
2:54pm 14 24 mph 1010.4mb 68f
2:48pm 16 22 mph 1010.4mb 68f
2:42pm 15 28 mph 1010.3mb 68f
2:36pm 9 16 mph 1010.2mb 69f
2:30pm 14 23 mph 1010.3mb 68f
2:24pm 16 23 mph 1010.3mb 68f
2:18pm 17 25 mph 1010.3mb 67f
2:12pm 15 26 mph 1010.3mb 68f
2:06pm 22 28 mph 1010.3mb 67f
2:00pm 17 25 mph 1010.3mb 67f
1:54pm 18 26 mph 1010.2mb 67f
1:48pm 16 20 mph 1010.1mb 67f
1:42pm 15 20 mph 1010.1mb 66f
1:36pm 13 22 mph 1010.1mb 66f
1:30pm 20 29 mph 1010mb 67f
1:24pm 17 24 mph 1009.9mb 67f
1:18pm 14 20 mph 1009.8mb 67f
1:12pm 15 22 mph 1009.8mb 66f
1:06pm 16 22 mph 1009.8mb 67f
1:00pm 15 24 mph 1009.8mb 66f
12:54pm 15 21 mph 1009.8mb 66f
12:48pm 17 26 mph 1009.8mb 66f
12:42pm 20 26 mph 1009.8mb 66f
12:36pm 11 21 mph 1009.7mb 66f
12:30pm 15 18 mph 1009.7mb 65f
12:24pm 14 22 mph 1009.7mb 65f
12:18pm 15 17 mph 1009.6mb 66f
12:12pm 11 16 mph 1009.6mb 66f
12:06pm 14 22 mph 1009.6mb 65f
12:00pm 11 22 mph 1009.6mb 65f
11:54am 14 17 mph 1009.5mb 65f
11:48am 15 22 mph 1009.5mb 65f
11:42am 16 21 mph 1009.5mb 64f
11:36am 16 21 mph 1009.4mb 65f
11:30am 13 15 mph 1009.3mb 65f
11:24am 10 17 mph 1009.3mb 65f
11:18am 16 21 mph 1009.3mb 65f
11:12am 14 17 mph 1009.2mb 65f
11:06am 10 20 mph 1009.1mb 65f
11:00am 15 20 mph 1009.1mb 65f
10:54am 6 8 mph 1009.1mb 64f
10:48am 9 17 mph 1009mb 64f
10:42am 14 20 mph 1009mb 64f
10:36am 14 20 mph 1009mb 63f
10:30am 11 21 mph 1009mb 63f
10:24am 16 20 mph 1008.9mb 64f
10:18am 9 16 mph 1008.8mb 64f
10:12am 13 18 mph 1008.8mb 64f
10:06am 13 17 mph 1008.8mb 64f
10:00am 8 15 mph 1008.7mb 64f
9:54am 9 13 mph 1008.7mb 63f
9:48am 10 14 mph 1008.7mb 63f
9:42am 13 15 mph 1008.7mb 63f
9:36am 8 13 mph 1008.6mb 63f
9:30am 7 10 mph 1008.6mb 62f
9:24am 5 8 mph 1008.5mb 62f
9:18am 7 9 mph 1008.5mb 61f
9:12am 7 8 mph 1008.5mb 60f
9:06am 7 9 mph 1008.5mb 60f
9:00am 7 10 mph 1008.5mb 60f
8:54am 8 9 mph 1008.5mb 60f
8:48am 7 9 mph 1008.4mb 60f
8:42am 6 8 mph 1008.4mb 59f
8:36am 6
mph
1008.4mb 59f
8:30am 6 7 mph 1008.4mb 58f
8:24am 6 7 mph 1008.4mb 58f
8:18am 6 7 mph 1008.4mb 58f
8:12am 7 9 mph 1008.4mb 58f
8:06am 7 9 mph 1008.4mb 58f
8:00am 7 8 mph 1008.3mb 57f
7:54am 7 8 mph 1008.3mb 57f
7:48am 7
mph
1008.2mb 57f
7:42am 6 8 mph 1008.2mb 57f
7:36am 6 8 mph 1008.1mb 57f
7:30am 5 7 mph 1008.1mb 57f
7:24am 3 6 mph 1008mb 57f
7:18am 1 3 mph 1008mb 57f
7:12am  -  3 mph 1007.9mb 56f
7:06am 3 5 mph 1007.9mb 56f
7:00am 3 6 mph 1007.9mb 56f
6:54am 3 5 mph 1007.9mb 56f
6:48am 1 2 mph 1008mb 56f
6:42am  -  1 mph 1008mb 56f
6:36am  -  2 mph 1008mb 55f
6:30am  -  1 mph 1007.9mb 55f
6:24am  -  2 mph 1008mb 55f
6:18am 2 3 mph 1007.9mb 55f
6:12am 3
mph
1007.9mb 55f
6:06am 2 3 mph 1007.8mb 55f
6:00am 3 5 mph 1007.9mb 55f
5:54am 5
mph
1007.8mb 55f
5:48am 3 5 mph 1007.8mb 55f
5:42am 3
mph
1007.8mb 55f
5:36am 2 3 mph 1007.7mb 55f
5:30am 2 5 mph 1007.7mb 55f
5:24am 3 6 mph 1007.7mb 55f
5:18am 3 5 mph 1007.6mb 55f
5:12am 5 6 mph 1007.6mb 55f
5:06am 3 5 mph 1007.7mb 55f
5:00am 3 7 mph 1007.7mb 54f
4:54am 6 7 mph 1007.8mb 54f
4:48am 3 5 mph 1007.7mb 54f
4:42am 2 5 mph 1007.7mb 54f
4:36am 2 3 mph 1007.7mb 54f
4:30am 2 3 mph 1007.7mb 54f
4:24am 2 3 mph 1007.8mb 54f
4:18am 1 2 mph 1007.8mb 54f
4:12am 1 2 mph 1007.8mb 54f
4:06am 2
mph
1007.8mb 53f
4:00am 1 2 mph 1007.8mb 53f
3:54am 1 2 mph 1007.9mb 53f
3:48am 2 3 mph 1007.9mb 53f
3:42am 2 3 mph 1008mb 53f
3:36am 3
mph
1008mb 53f
3:30am 1 2 mph 1008mb 52f
3:18am  -  mph 1008.1mb 52f
3:12am  -  1 mph 1008.1mb 52f
3:06am  -  1 mph 1008.1mb 51f
3:00am  -  1 mph 1008.1mb 51f
2:54am  -  2 mph 1008.2mb 51f
2:48am 1 2 mph 1008.1mb 51f
2:42am 2
mph
1008.2mb 51f
2:36am 1 3 mph 1008.3mb 51f
2:30am 2 3 mph 1008.3mb 51f
2:24am 2 3 mph 1008.3mb 52f
2:18am 2 3 mph 1008.3mb 52f
2:12am 2 3 mph 1008.4mb 52f
2:06am 2 5 mph 1008.4mb 52f
2:00am 3 5 mph 1008.4mb 53f
1:54am 2 5 mph 1008.4mb 52f
1:48am 2 3 mph 1008.4mb 52f
1:42am 1
mph
1008.4mb 52f
1:36am  -  1 mph 1008.4mb 52f
1:30am  -  mph 1008.4mb 52f
1:24am  -  mph 1008.5mb 51f
1:18am  -  mph 1008.5mb 51f
1:12am  -  1 mph 1008.6mb 51f
1:06am  -  2 mph 1008.6mb 51f
1:00am  -  2 mph 1008.7mb 51f
12:54am 1 2 mph 1008.7mb 51f
12:48am  -  mph 1008.8mb 51f
12:42am  -  mph 1008.8mb 51f
12:36am  -  mph 1008.7mb 51f
12:30am 3 5 mph 1008.8mb 51f
12:24am 2 3 mph 1008.8mb 51f
12:18am 2
mph
1008.7mb 51f
12:12am 1
mph
1008.6mb 51f
12:06am  -  1 mph 1008.7mb 51f
12:00am  -  1 mph 1008.7mb 51f
Sat 05/28 11:54pm  -  3 mph 1008.7mb 51f
11:48pm 2 3 mph 1008.7mb 51f
11:42pm 2
mph
1008.7mb 51f
11:36pm 2 3 mph 1008.5mb 51f
11:30pm 2 5 mph 1008.5mb 51f
11:24pm 3 5 mph 1008.4mb 52f
11:18pm 2 3 mph 1008.4mb 52f
11:12pm 2 3 mph 1008.4mb 52f
11:06pm 2
mph
1008.4mb 52f
11:00pm  -  1 mph 1008.4mb 52f
10:54pm 1 2 mph 1008.5mb 52f
10:48pm 1 2 mph 1008.3mb 52f
10:42pm 1 2 mph 1008.3mb 53f
10:36pm 1 3 mph 1008.4mb 53f
10:30pm 2 5 mph 1008.2mb 53f
10:24pm 5 6 mph 1008.2mb 53f
10:18pm  -  mph 1008.1mb 53f
10:12pm  -  mph 1008.1mb 52f
10:06pm  -  mph 1008.1mb 52f
10:00pm  -  mph 1008.1mb 52f
9:54pm  -  mph 1008.1mb 52f
9:48pm 2 5 mph - -
9:42pm 3 5 mph - -
9:36pm 2 3 mph - -
9:30pm 2 5 mph 1008mb -
9:24pm 1 3 mph 1008mb -
9:18pm  -  mph 1008.1mb 51f
9:12pm  -  mph 1008.1mb 51f
9:06pm  -  mph 1008.3mb 51f
9:00pm  -  mph 1008.3mb -
8:54pm  -  mph 1008.3mb -
8:48pm  -  mph - 50f
8:42pm  -  mph - 50f
8:36pm  -  mph - 50f
8:30pm 1 5 mph - -
8:24pm 2 5 mph - -
8:18pm  -  mph 1009mb 50f
8:12pm  -  mph 1008.9mb 50f
8:06pm  -  mph 1009.1mb 50f
8:00pm  -  mph 1009.1mb 50f
7:54pm  -  mph 1009mb 50f
7:48pm  -  mph - 50f
7:42pm  -  mph - 50f
7:36pm  -  mph - 50f
7:24pm 3 5 mph - -
7:18pm  -  mph 1008.8mb -
7:12pm  -  mph 1008.7mb -
7:06pm  -  mph 1008.6mb -
7:00pm 3 5 mph - -
6:54pm 2 6 mph - -
6:48pm  -  mph 1008.7mb -
6:42pm  -  mph 1008.7mb -
6:36pm  -  mph 1008.8mb -
6:30pm 2 3 mph 1008.7mb -
6:24pm 2 3 mph 1008.8mb -
6:18pm  -  mph - 51f
6:12pm  -  mph - 51f
6:06pm  -  mph - 51f
6:00pm 2 3 mph - 51f
5:54pm 3 6 mph - 51f
5:48pm  -  mph 1008.7mb -
5:42pm  -  mph 1008.7mb -
5:36pm  -  mph 1008.6mb -
5:30pm  -  mph 1008.7mb 50f
5:24pm  -  mph 1008.6mb 49f
5:18pm  -  mph 1008.7mb 49f
5:12pm  -  mph 1008.8mb 49f
5:06pm  -  mph 1008.7mb 49f
5:00pm 5 6 mph - -
4:54pm 3 6 mph - -
4:48pm  -  mph 1008.6mb 49f
4:42pm  -  mph 1008.6mb 49f
4:36pm  -  mph 1008.6mb 49f
4:30pm 1 3 mph 1008.5mb 49f
4:24pm 2 5 mph 1008.5mb 49f
4:18pm 2 3 mph 1008.5mb 49f
4:12pm 3 5 mph 1008.2mb 49f
4:06pm 3 6 mph 1008.3mb 49f
4:00pm 3 5 mph 1008.2mb 49f
3:54pm 2 5 mph 1008.5mb 49f
3:48pm 3 5 mph 1008.4mb 49f
3:42pm 2 6 mph 1008.4mb 50f
3:36pm 3 6 mph 1008.3mb 49f
3:30pm 2 6 mph 1008.4mb 49f
3:24pm 3 6 mph 1008.3mb 49f
3:18pm 3 6 mph 1008.2mb 49f
3:12pm 3 5 mph 1008.1mb 49f
3:06pm 2 3 mph 1008.1mb 49f
3:00pm 2 5 mph 1008.2mb 49f
2:54pm 3 6 mph 1008mb 49f
2:48pm 3 7 mph 1007.9mb 49f
2:42pm 6 7 mph 1007.9mb 49f
2:36pm 5 6 mph 1007.8mb 49f
2:30pm 3 6 mph 1007.6mb 50f
2:24pm 3 6 mph 1007.6mb 50f
2:18pm 3 6 mph 1007.7mb 49f
2:12pm 3 5 mph 1007.7mb 50f
2:06pm 3 5 mph 1007.7mb 49f
2:00pm 2
mph
1007.8mb 49f
1:54pm  -  3 mph 1007.9mb 49f
1:48pm 1 5 mph 1008mb 49f
1:42pm 3 6 mph 1007.9mb 49f
1:36pm 3 7 mph 1008.1mb 49f
1:30pm 7 8 mph 1008.1mb 49f
1:24pm 8 9 mph 1008.1mb 49f
1:18pm 8 10 mph 1008mb 49f
1:12pm 5 8 mph 1008mb 50f
1:06pm 3 10 mph 1007.9mb 50f
1:00pm 7 10 mph 1008mb 50f
12:54pm 6 9 mph 1007.8mb 51f
12:48pm 6 9 mph 1007.6mb 51f
12:42pm 3 7 mph 1007.7mb 50f
12:36pm 5 6 mph 1007.8mb 49f
12:30pm 2 5 mph 1008.1mb 49f
12:24pm 1 5 mph 1008.5mb 49f
12:18pm 2 3 mph 1008.6mb 48f
12:12pm 2 3 mph 1008.6mb 48f
12:06pm 2 5 mph 1008.5mb 47f
12:00pm 1 6 mph 1008.5mb 47f
11:54am 2 3 mph 1008.7mb 47f
11:48am  -  6 mph 1008.8mb 47f
11:42am 3 6 mph 1008.7mb 47f
11:36am 2 3 mph 1008.9mb 46f
11:30am 2 5 mph 1008.9mb 46f
11:24am 3 6 mph 1008.7mb 47f
11:18am 3 9 mph 1008.7mb 47f
11:12am 5 8 mph 1008.5mb 47f
11:06am 6 8 mph 1008.5mb 47f
11:00am 6 8 mph 1008.3mb 47f
10:54am 2 9 mph 1008.2mb 47f
10:48am 5 10 mph 1008.2mb 47f
10:42am 6 11 mph 1008mb 47f
10:36am 8 10 mph 1007.9mb 48f
10:30am 3 5 mph 1007.6mb 48f
10:24am 2 8 mph 1007.2mb 48f
10:18am 5 7 mph 1007.5mb 48f
10:12am 2 5 mph 1007mb 48f
10:06am 2 3 mph 1007.2mb 47f
10:00am 2 6 mph 1007.6mb 47f
9:54am 5 6 mph 1007.6mb 47f
9:48am 2 6 mph 1007.8mb 47f
9:42am 5 6 mph 1007.7mb 47f
9:36am 2 7 mph 1007.8mb 47f
9:30am 3 6 mph 1008.1mb 47f
9:24am 3 6 mph 1008.2mb 47f
9:18am 3 6 mph 1008.2mb 47f
9:12am 3 5 mph 1008.2mb 46f
9:06am 2 5 mph 1008.5mb 46f
9:00am 2 6 mph 1008.6mb 46f
8:54am 3 6 mph 1008.6mb 46f
8:48am 3 6 mph 1008.4mb 46f
8:42am 1 5 mph 1008.3mb 46f
8:36am 2 6 mph 1008.2mb 46f
8:30am 3 6 mph 1008.2mb 46f
8:24am 2 5 mph 1008.3mb 46f
8:18am 1 3 mph 1008.3mb 46f
8:12am 2 3 mph 1008.3mb 46f
8:06am 2 3 mph 1008.2mb 46f
8:00am 2 3 mph 1008.3mb 46f
7:54am 1 3 mph 1008.2mb 46f
7:48am 2 6 mph 1008.1mb 46f
7:42am 3 6 mph 1008.1mb 46f
7:36am 5
mph
1008.2mb 46f
7:30am 3 5 mph 1008.2mb 46f
7:24am 2 6 mph 1008.2mb 46f
7:18am 1 8 mph 1008.1mb 46f
7:12am 3 7 mph 1007.9mb 46f
7:06am 2 7 mph 1007.9mb 46f
7:00am 6 8 mph 1008mb 46f
6:54am 2 6 mph 1008mb 46f
6:48am 3 8 mph 1007.9mb 46f
6:42am 5 8 mph 1007.7mb 46f
6:36am 6 8 mph 1007.8mb 46f
6:30am 6 7 mph 1007.8mb 46f
6:24am 3 7 mph 1007.8mb 46f
6:18am 3 7 mph 1007.7mb 46f
6:12am 5 7 mph 1007.8mb 46f
6:06am 5 6 mph 1008mb 46f
5:54am 3 6 mph 1008.3mb 46f
5:48am 2 5 mph 1008.4mb 46f
5:42am 2 5 mph 1008.4mb 46f
5:36am 2 5 mph 1008.4mb 46f
5:30am 3 6 mph 1008.5mb 46f
5:24am 2 6 mph 1008.4mb 46f
5:18am 3 6 mph 1008.4mb 46f
5:12am 5 6 mph 1008.3mb 45f
5:06am 6 7 mph 1008.5mb 45f
5:00am 3 8 mph 1008.4mb 46f
4:54am 3 9 mph 1008.3mb 46f
4:48am 3 8 mph 1008.3mb 46f
4:42am 2 8 mph 1008mb 46f
4:36am 6 9 mph 1007.9mb 46f
4:30am 6 10 mph 1007.7mb 46f
4:24am 6 10 mph 1007.7mb 46f
4:18am 8 11 mph 1007.5mb 46f
4:12am 7 13 mph 1007.4mb 46f
4:06am 6 11 mph 1007.5mb 46f
4:00am 7 11 mph 1007.4mb 46f
3:54am 6 10 mph 1007.6mb 46f
3:48am 5 9 mph 1007.7mb 46f
3:42am 7 10 mph 1007.8mb 46f
3:36am 7 10 mph 1007.8mb 46f
3:30am 6 10 mph 1007.9mb 46f
3:24am 5 9 mph 1008mb 46f
3:18am 6 11 mph 1007.9mb 46f
3:12am 7 10 mph 1008mb 46f
3:06am 6 9 mph 1008.2mb 46f
3:00am 7 11 mph 1008.2mb 46f
2:54am 8 14 mph 1008.2mb 46f
2:48am 9 15 mph 1008.2mb 47f
2:42am 8 14 mph 1008.2mb 47f
2:36am 9 14 mph 1008.2mb 47f
2:30am 10 15 mph 1008.1mb 47f
2:24am 8 15 mph 1008mb 47f
2:18am 8 13 mph 1007.9mb 47f
2:12am 9 15 mph 1007.8mb 47f
2:06am 9 15 mph 1007.7mb 47f
2:00am 10 16 mph 1007.8mb 47f
1:54am 8 16 mph 1008.1mb 47f
1:48am 10 16 mph 1008.3mb 47f
1:42am 7 15 mph 1008.5mb 47f
1:36am 9 14 mph 1008.5mb 47f
1:30am 9 14 mph 1008.6mb 47f
1:24am 9 14 mph 1008.7mb 47f
1:18am  -  mph 1008.7mb 47f
1:12am  -  mph 1008.6mb 47f
1:06am  -  mph 1008.6mb 48f
1:00am  -  mph 1008.6mb 48f
12:54am  -  mph 1008.4mb 48f
12:48am 8 14 mph 1008.3mb 48f
12:42am 8 17 mph 1008.3mb 48f
12:36am 7 15 mph 1008.1mb 49f
12:30am 10 15 mph 1008.2mb 49f
12:24am 7 11 mph 1008.1mb 49f
12:18am 6 8 mph 1008mb 49f
12:12am 3 9 mph 1008.2mb 49f
12:06am 7 11 mph 1008.4mb 49f
12:00am 7 11 mph 1008.5mb 49f
Fri 05/27 11:54pm 3 8 mph 1008.6mb 47f
11:48pm 1 2 mph 1008.6mb 47f
11:42pm 1 5 mph 1008.7mb 47f
11:36pm 2 5 mph 1008.7mb 47f
11:30pm 2 5 mph 1008.7mb 47f
11:24pm 3 6 mph 1008.8mb 47f
11:18pm 3 7 mph 1008.7mb 47f
11:12pm 5 8 mph 1008.6mb 47f
11:06pm 3 6 mph 1008.7mb 47f
11:00pm 2 7 mph 1008.7mb 47f
10:54pm 2 7 mph 1008.8mb 47f
10:48pm  -  mph 1009mb 47f
10:42pm  -  mph 1009mb 48f
10:36pm  -  mph 1009.1mb 47f
10:30pm 9 15 mph 1009.1mb 47f
10:24pm 9 18 mph 1009.1mb 48f
10:18pm  -  mph 1009.1mb -
10:12pm  -  mph 1009mb -
10:06pm  -  mph 1009mb -
10:00pm 8 13 mph 1009.1mb -
9:54pm 9 13 mph 1009.1mb -
9:30pm  -  mph 1008.9mb -
9:24pm  -  mph 1009mb -
9:18pm  -  mph 1009mb 50f
9:12pm  -  mph 1009mb 51f
9:06pm  -  mph 1009mb 52f
9:00pm 7 10 mph 1008.9mb -
8:54pm 6 11 mph 1008.8mb -
8:48pm  -  mph 1008.7mb -
8:42pm  -  mph 1008.7mb -
8:36pm  -  mph 1008.8mb -
8:30pm 8 14 mph 1008.9mb -
8:24pm 9 14 mph 1009mb -
8:18pm  -  mph 1009.2mb -
8:12pm  -  mph 1009.3mb -
8:06pm  -  mph 1009.4mb -
8:00pm 7 14 mph 1009.2mb -
7:54pm 7 11 mph 1009.1mb -
7:48pm  -  mph 1009.2mb -
7:42pm  -  mph 1009.4mb -
7:36pm  -  mph 1009.5mb -
7:30pm 2 8 mph 1009.4mb -
7:24pm 3 8 mph 1009.4mb -
7:18pm  -  mph - 51f
7:12pm  -  mph - 51f
7:06pm  -  mph - 51f
7:00pm  -  mph 1009.6mb -
6:54pm  -  mph 1009.6mb -
6:48pm  -  mph 1009.6mb -
6:42pm  -  mph 1009.6mb -
6:36pm  -  mph 1009.7mb -
6:30pm 7 10 mph 1009.8mb -
6:24pm 6 13 mph 1009.9mb -
6:18pm  -  mph 1009.9mb 51f
6:12pm  -  mph 1009.8mb 51f
6:06pm  -  mph 1009.8mb 51f
6:00pm 7 11 mph 1009.8mb -
5:54pm 7 13 mph 1009.9mb -
5:48pm  -  mph 1010.1mb -
5:42pm  -  mph 1010.3mb -
5:36pm  -  mph 1010.5mb -
5:30pm 6 10 mph 1010.6mb -
5:24pm 7 13 mph 1010.7mb -
5:18pm  -  mph 1010.7mb -
5:12pm  -  mph 1010.4mb -
5:06pm  -  mph 1010.6mb -
5:00pm  -  mph 1010.6mb 49f
4:54pm  -  mph 1010.8mb 49f
4:48pm  -  mph 1010.4mb 49f
4:42pm  -  mph 1010.6mb 48f
4:36pm  -  mph 1010.9mb 47f
4:30pm 5 9 mph 1011.1mb 47f
4:24pm 6 8 mph 1011.1mb 47f
4:18pm 6 10 mph 1010.9mb 47f
4:12pm 5 7 mph 1011mb 47f
4:06pm 5 8 mph 1011.1mb 47f
4:00pm 6 9 mph 1011.3mb 47f
3:54pm 5 14 mph 1011.3mb 47f
3:48pm 3 6 mph 1011.1mb 47f
3:42pm 3 9 mph 1010.9mb 46f
3:36pm 5 8 mph 1011mb 46f
3:30pm 5 8 mph 1011.5mb 46f
3:24pm 6 10 mph 1011.6mb 46f
3:18pm 8 11 mph 1011.9mb 46f
3:12pm 7 11 mph 1011.3mb 47f
3:06pm 6 8 mph 1010.7mb 46f
3:00pm 5 8 mph 1011mb 46f
2:54pm 6 8 mph 1011.1mb 45f
2:48pm 3 8 mph 1011.4mb 46f
2:42pm 5 7 mph 1011.4mb 45f
2:36pm 3 8 mph 1011.6mb 46f
2:30pm 5 7 mph 1011.7mb 46f
2:24pm 3 5 mph 1011.8mb 46f
2:18pm 2 7 mph 1011.6mb 46f
2:12pm 5 7 mph 1011.3mb 46f
2:06pm 5 8 mph 1011.7mb 46f
2:00pm 3 9 mph 1011.8mb 46f
1:54pm 7 9 mph 1011.9mb 46f
1:48pm 7 10 mph 1011.6mb 46f
1:42pm 5 10 mph 1011.5mb 46f
1:36pm 6 11 mph 1011.4mb 47f
1:30pm 8 11 mph 1011.3mb 47f
1:24pm 5 9 mph 1011.4mb 47f
1:18pm 6 8 mph 1011.6mb 47f
1:12pm 5 8 mph 1011.7mb 47f
1:06pm 5 8 mph 1011.8mb 47f
1:00pm 6 8 mph 1011.9mb 47f
12:54pm 5 7 mph 1011.9mb 47f
12:48pm 5 7 mph 1012.1mb 47f
12:42pm 3 6 mph 1012.1mb 46f
12:36pm 2 6 mph 1012.2mb 46f
12:30pm 3 7 mph 1012.3mb 46f
12:24pm 3 6 mph 1012.3mb 46f
12:18pm 5 7 mph 1012.3mb 46f
12:12pm 5 7 mph 1012.2mb 46f
12:06pm 3 6 mph 1012.1mb 46f
12:00pm 3 6 mph 1011.9mb 46f
11:54am 5 7 mph 1011.9mb 46f
11:48am 5 7 mph 1011.9mb 46f
11:42am 3 6 mph 1011.9mb 46f
11:36am 5 6 mph 1011.9mb 46f